Time;durP1;ratioP1;P1;durP2;ratioP2;P2;SDS_P1;SDS_P2;PMS_P1;PMS_P2;Temp;Humidity;BMP_temperature;BMP_pressure;BME280_temperature;BME280_humidity;BME280_pressure;Samples;Min_cycle;Max_cycle;Signal;HPM_P1;HPM_P2
2022/10/24 00:00:24;;;;;;;11.43;6.57;;;;;;;12.54;67.51;94663.44;5081212;28;20020;-78
2022/10/24 00:02:50;;;;;;;11.85;4.03;;;;;;;12.56;67.25;94657.81;5081940;28;20040;-79
2022/10/24 00:05:15;;;;;;;8.63;4.15;;;;;;;12.57;67.44;94657.47;5082423;28;20307;-78
2022/10/24 00:07:41;;;;;;;9.75;4.43;;;;;;;12.54;67.65;94657.31;5082782;28;20345;-78
2022/10/24 00:10:08;;;;;;;9.82;4.60;;;;;;;12.51;67.72;94653.34;5083895;28;20078;-79
2022/10/24 00:12:33;;;;;;;9.15;5.07;;;;;;;12.52;67.66;94654.16;5086648;28;20047;-78
2022/10/24 00:14:59;;;;;;;9.15;3.90;;;;;;;12.52;67.45;94657.63;5086690;28;20087;-78
2022/10/24 00:17:27;;;;;;;14.32;3.60;;;;;;;12.54;67.29;94651.97;5068865;28;20032;-78
2022/10/24 00:19:57;;;;;;;11.43;4.70;;;;;;;12.52;67.23;94646.13;5086675;28;20215;-79
2022/10/24 00:22:23;;;;;;;8.35;4.15;;;;;;;12.52;67.34;94649.59;5085909;28;20034;-79
2022/10/24 00:24:49;;;;;;;7.38;4.38;;;;;;;12.53;67.40;94645.81;5086582;28;20024;-78
2022/10/24 00:27:14;;;;;;;8.00;3.90;;;;;;;12.51;67.18;94645.31;5086610;28;20039;-78
2022/10/24 00:29:40;;;;;;;7.05;3.33;;;;;;;12.45;67.55;94641.19;5086738;28;20043;-78
2022/10/24 00:32:05;;;;;;;8.70;4.43;;;;;;;12.47;67.42;94640.91;5086405;28;20020;-78
2022/10/24 00:34:31;;;;;;;11.18;4.10;;;;;;;12.47;67.52;94643.56;5086110;28;20087;-78
2022/10/24 00:36:56;;;;;;;6.60;3.67;;;;;;;12.43;67.54;94630.03;5068505;28;20031;-78
2022/10/24 00:39:22;;;;;;;8.48;4.40;;;;;;;12.44;67.61;94639.63;5085222;28;20045;-78
2022/10/24 00:41:47;;;;;;;14.05;4.85;;;;;;;12.42;67.55;94636.47;5086223;28;20025;-78
2022/10/24 00:44:14;;;;;;;10.40;5.55;;;;;;;12.43;67.62;94640.72;5086010;28;20257;-78
2022/10/24 00:46:42;;;;;;;10.30;5.65;;;;;;;12.40;67.54;94631.44;5086217;28;20318;-78
2022/10/24 00:49:12;;;;;;;13.98;5.63;;;;;;;12.36;67.69;94651.84;5086284;28;20070;-77
2022/10/24 00:51:38;;;;;;;13.02;6.07;;;;;;;12.31;67.77;94637.81;5086079;28;20077;-78
2022/10/24 00:54:07;;;;;;;9.82;5.75;;;;;;;12.32;67.79;94644.75;5085974;28;20078;-78
2022/10/24 00:56:40;;;;;;;8.15;4.30;;;;;;;12.24;68.28;94639.03;5085897;28;20032;-78
2022/10/24 00:59:08;;;;;;;13.57;4.10;;;;;;;12.16;68.53;94634.41;5085747;28;20061;-78
2022/10/24 01:01:33;;;;;;;10.68;5.18;;;;;;;12.19;68.65;94643.69;5085672;28;20227;-78
2022/10/24 01:04:00;;;;;;;6.95;3.85;;;;;;;12.10;68.45;94648.19;5085726;28;20028;-77
2022/10/24 01:06:46;;;;;;;8.73;3.92;;;;;;;11.93;69.14;94633.63;5085753;28;20066;-78
2022/10/24 01:09:37;;;;;;;11.75;4.93;;;;;;;11.93;69.41;94640.84;5085793;28;20023;-78
2022/10/24 01:12:11;;;;;;;8.50;4.35;;;;;;;11.89;69.65;94647.88;5085600;28;20031;-78
2022/10/24 01:15:01;;;;;;;6.72;3.60;;;;;;;11.84;69.87;94638.88;5085638;28;20025;-78
2022/10/24 01:17:48;;;;;;;6.05;3.47;;;;;;;11.73;70.22;94628.69;5085541;28;20016;-78
2022/10/24 01:20:25;;;;;;;5.57;3.47;;;;;;;11.66;70.32;94642.44;5085566;28;20043;-78
2022/10/24 01:23:00;;;;;;;6.53;4.00;;;;;;;11.62;70.91;94644.13;5084315;28;20326;-78
2022/10/24 01:25:37;;;;;;;7.88;3.90;;;;;;;11.61;71.00;94651.38;5085525;28;20024;-78
2022/10/24 01:28:27;;;;;;;8.60;3.72;;;;;;;11.56;70.97;94642.66;5085485;28;20054;-78
2022/10/24 01:31:24;;;;;;;7.78;4.15;;;;;;;11.54;71.04;94647.50;5084919;28;20060;-78
2022/10/24 01:33:56;;;;;;;8.55;4.15;;;;;;;11.52;71.19;94641.69;5085464;28;20218;-78
2022/10/24 01:36:36;;;;;;;8.43;3.72;;;;;;;11.53;71.18;94643.28;5085206;28;20081;-78
2022/10/24 01:39:05;;;;;;;11.13;4.05;;;;;;;11.51;71.25;94648.13;5085069;28;20066;-78
2022/10/24 01:41:32;;;;;;;9.00;4.30;;;;;;;11.51;71.26;94642.78;5084801;28;20043;-78
2022/10/24 01:44:06;;;;;;;8.23;4.10;;;;;;;11.47;71.59;94645.25;5065515;28;20020;-78
2022/10/24 01:46:41;;;;;;;6.25;3.63;;;;;;;11.49;71.52;94644.97;5083259;28;20326;-78
2022/10/24 01:49:12;;;;;;;13.13;5.78;;;;;;;11.45;71.58;94642.88;5084916;28;20027;-78
2022/10/24 01:51:40;;;;;;;8.10;3.97;;;;;;;11.44;71.65;94643.19;5085077;28;20323;-78
2022/10/24 01:54:07;;;;;;;13.82;4.88;;;;;;;11.42;71.59;94640.81;5084874;28;20265;-78
2022/10/24 01:56:33;;;;;;;7.03;3.42;;;;;;;11.43;71.44;94644.28;5084997;28;20043;-78
2022/10/24 01:59:28;;;;;;;9.27;4.22;;;;;;;11.34;71.64;94633.50;5084834;28;20028;-78
2022/10/24 02:01:54;;;;;;;10.13;3.92;;;;;;;11.33;71.88;94631.13;5066968;28;20036;-78
2022/10/24 02:04:21;;;;;;;9.48;4.53;;;;;;;11.31;71.73;94633.31;5084644;28;20035;-78
2022/10/24 02:06:48;;;;;;;13.05;3.92;;;;;;;11.33;71.65;94641.81;5084541;28;20023;-78
2022/10/24 02:09:17;;;;;;;13.45;4.75;;;;;;;11.25;71.77;94635.28;5083964;28;20025;-78
2022/10/24 02:11:46;;;;;;;10.00;4.50;;;;;;;11.19;72.17;94641.81;5084533;28;20020;-78
2022/10/24 02:14:38;;;;;;;7.93;4.40;;;;;;;11.18;72.04;94641.03;5066875;28;20020;-78
2022/10/24 02:17:04;;;;;;;12.30;5.25;;;;;;;11.14;72.32;94641.94;5084518;28;20073;-78
2022/10/24 02:19:31;;;;;;;9.93;5.40;;;;;;;11.17;72.42;94644.00;5084352;28;20024;-78
2022/10/24 02:22:17;;;;;;;9.95;5.57;;;;;;;11.15;72.55;94648.84;5084132;28;20028;-78
2022/10/24 02:24:56;;;;;;;11.57;5.43;;;;;;;11.10;72.48;94641.72;5084176;28;20028;-78
2022/10/24 02:27:28;;;;;;;10.95;5.93;;;;;;;11.11;72.77;94639.84;5083908;28;20421;-78
2022/10/24 02:30:08;;;;;;;14.52;5.55;;;;;;;11.09;72.56;94634.00;5084281;28;20281;-78
2022/10/24 02:32:42;;;;;;;10.93;5.10;;;;;;;11.09;72.83;94636.69;5083950;28;20024;-78
2022/10/24 02:35:11;;;;;;;10.13;5.38;;;;;;;11.11;72.88;94634.50;5084079;28;20048;-78
2022/10/24 02:37:42;;;;;;;10.95;5.43;;;;;;;11.12;72.72;94639.56;5084109;28;20023;-79
2022/10/24 02:40:10;;;;;;;10.50;5.20;;;;;;;11.15;72.61;94635.50;5084128;28;20048;-79
2022/10/24 02:42:37;;;;;;;11.75;4.63;;;;;;;11.15;72.70;94635.50;5083556;28;20025;-78
2022/10/24 02:45:04;;;;;;;12.15;5.55;;;;;;;11.12;72.99;94633.44;5083761;28;20050;-78
2022/10/24 02:47:31;;;;;;;12.88;5.25;;;;;;;11.13;73.07;94640.34;5083851;28;20043;-79
2022/10/24 02:49:56;;;;;;;12.48;5.28;;;;;;;11.13;73.33;94643.78;5083723;28;20024;-79
2022/10/24 02:52:22;;;;;;;9.93;4.70;;;;;;;11.12;73.18;94641.44;5083656;28;20042;-78
2022/10/24 02:54:49;;;;;;;9.38;4.72;;;;;;;11.13;73.10;94643.78;5083767;28;20054;-79
2022/10/24 02:57:14;;;;;;;10.38;4.85;;;;;;;11.13;72.96;94637.66;5083619;28;20248;-78
2022/10/24 02:59:40;;;;;;;9.98;5.50;;;;;;;11.14;73.13;94637.38;5083601;28;20016;-78
2022/10/24 03:02:05;;;;;;;9.60;5.10;;;;;;;11.11;73.32;94637.97;5083437;28;20054;-78
2022/10/24 03:04:31;;;;;;;11.00;5.50;;;;;;;11.10;73.31;94638.28;5065503;28;20069;-78
2022/10/24 03:06:57;;;;;;;9.38;4.80;;;;;;;11.08;73.23;94640.44;5083520;28;20020;-78
2022/10/24 03:09:22;;;;;;;9.75;4.63;;;;;;;11.07;73.06;94634.31;5083452;28;20092;-78
2022/10/24 03:11:47;;;;;;;10.27;5.22;;;;;;;11.07;73.01;94628.97;5083408;28;20246;-78
2022/10/24 03:14:13;;;;;;;13.43;6.18;;;;;;;11.02;73.04;94637.88;5083395;28;20314;-78
2022/10/24 03:16:38;;;;;;;11.77;4.82;;;;;;;10.95;73.41;94632.16;5083320;28;20024;-78
2022/10/24 03:19:04;;;;;;;9.57;5.07;;;;;;;10.93;73.25;94639.66;5083202;28;20311;-78
2022/10/24 03:21:29;;;;;;;13.75;5.03;;;;;;;10.89;73.75;94635.19;5083244;28;20020;-78
2022/10/24 03:23:55;;;;;;;8.55;4.30;;;;;;;10.88;73.67;94629.06;5083232;28;20057;-78
2022/10/24 03:26:20;;;;;;;11.95;4.93;;;;;;;10.85;73.88;94632.34;5083205;28;20020;-78
2022/10/24 03:28:46;;;;;;;15.80;5.35;;;;;;;10.83;73.68;94629.19;5083021;28;20074;-77
2022/10/24 03:31:11;;;;;;;8.80;4.32;;;;;;;10.80;73.82;94630.53;5083178;28;20036;-78
2022/10/24 03:33:37;;;;;;;10.68;4.82;;;;;;;10.78;73.92;94626.59;5083229;28;20020;-78
2022/10/24 03:36:04;;;;;;;11.63;5.35;;;;;;;10.75;74.14;94632.53;5082828;28;20067;-78
2022/10/24 03:38:29;;;;;;;10.38;5.65;;;;;;;10.71;74.21;94628.88;5082908;28;20024;-78
2022/10/24 03:40:55;;;;;;;9.13;4.53;;;;;;;10.70;74.20;94624.63;5082914;28;20314;-78
2022/10/24 03:43:20;;;;;;;12.20;5.50;;;;;;;10.64;74.44;94627.38;5083082;28;20087;-77
2022/10/24 03:45:46;;;;;;;12.15;5.78;;;;;;;10.65;74.91;94628.16;5082238;28;20214;-77
2022/10/24 03:48:13;;;;;;;15.23;5.93;;;;;;;10.63;74.88;94631.13;5082900;28;20095;-78
2022/10/24 03:50:38;;;;;;;12.40;5.68;;;;;;;10.60;74.79;94623.72;5082990;28;20018;-78
2022/10/24 03:53:04;;;;;;;11.70;6.10;;;;;;;10.63;74.33;94631.13;5082782;28;20028;-78
2022/10/24 03:55:29;;;;;;;15.15;6.05;;;;;;;10.63;74.75;94638.34;5082876;28;20028;-78
2022/10/24 03:57:55;;;;;;;15.68;6.10;;;;;;;10.61;75.17;94627.97;5082677;28;20020;-78
2022/10/24 04:00:20;;;;;;;21.02;6.20;;;;;;;10.62;75.10;94628.75;5082916;28;20039;-78
2022/10/24 04:02:46;;;;;;;13.38;5.93;;;;;;;10.62;74.93;94629.56;5083039;28;20030;-78
2022/10/24 04:05:12;;;;;;;11.77;6.47;;;;;;;10.60;74.74;94629.06;5082836;28;20020;-78
2022/10/24 04:07:38;;;;;;;15.77;5.60;;;;;;;10.56;75.01;94624.59;5082858;28;20021;-78
2022/10/24 04:10:05;;;;;;;10.50;5.20;;;;;;;10.56;74.93;94622.72;5082860;28;20032;-78
2022/10/24 04:12:31;;;;;;;11.15;5.57;;;;;;;10.52;75.11;94619.06;5082846;28;20043;-78
2022/10/24 04:14:56;;;;;;;9.40;5.30;;;;;;;10.54;74.80;94616.91;5082795;28;20306;-78
2022/10/24 04:17:22;;;;;;;13.07;5.50;;;;;;;10.53;75.50;94609.19;5081194;28;20256;-78
2022/10/24 04:19:47;;;;;;;12.45;6.18;;;;;;;10.53;75.44;94615.31;5081004;28;20026;-78
2022/10/24 04:22:12;;;;;;;13.95;5.57;;;;;;;10.52;75.14;94605.75;5081661;28;20027;-78
2022/10/24 04:24:38;;;;;;;14.32;5.50;;;;;;;10.55;74.93;94618.47;5082300;28;20024;-78
2022/10/24 04:27:04;;;;;;;18.17;6.70;;;;;;;10.49;75.03;94613.53;5082209;28;20218;-78
2022/10/24 04:29:30;;;;;;;15.88;6.43;;;;;;;10.48;75.17;94615.38;5082636;28;20028;-78
2022/10/24 04:31:56;;;;;;;13.40;6.97;;;;;;;10.49;75.36;94616.97;5082647;28;20310;-78
2022/10/24 04:34:21;;;;;;;13.45;6.30;;;;;;;10.48;75.69;94618.06;5082657;28;20024;-78
2022/10/24 04:36:47;;;;;;;12.60;6.30;;;;;;;10.51;76.08;94625.47;5081648;28;20039;-79
2022/10/24 04:39:12;;;;;;;12.85;6.35;;;;;;;10.49;75.94;94627.66;5081535;28;20044;-78
2022/10/24 04:41:38;;;;;;;14.52;6.57;;;;;;;10.50;76.01;94628.44;5081281;28;20203;-79
2022/10/24 04:44:03;;;;;;;9.68;5.85;;;;;;;10.53;76.04;94625.97;5082205;28;20089;-78
2022/10/24 04:46:29;;;;;;;11.90;6.00;;;;;;;10.55;76.27;94634.47;5082177;28;20237;-78
2022/10/24 04:48:54;;;;;;;14.32;6.70;;;;;;;10.57;76.12;94632.31;5082601;28;20087;-78
2022/10/24 04:51:20;;;;;;;12.00;5.75;;;;;;;10.54;76.67;94626.75;5081211;28;20016;-78
2022/10/24 04:53:45;;;;;;;12.52;6.15;;;;;;;10.54;76.61;94637.41;5081671;28;20126;-78
2022/10/24 04:56:11;;;;;;;16.10;6.55;;;;;;;10.60;75.95;94642.38;5081247;28;20214;-78
2022/10/24 04:58:36;;;;;;;25.48;7.85;;;;;;;10.61;75.83;94637.84;5085424;28;20021;-78
2022/10/24 05:01:02;;;;;;;11.50;6.60;;;;;;;10.62;75.72;94639.41;5086032;28;20024;-77
2022/10/24 05:03:28;;;;;;;18.75;7.47;;;;;;;10.63;75.35;94646.34;5086150;28;20052;-78
2022/10/24 05:05:53;;;;;;;15.30;7.63;;;;;;;10.65;75.31;94649.50;5085924;28;20020;-78
2022/10/24 05:08:19;;;;;;;26.55;9.93;;;;;;;10.67;75.24;94641.22;5086065;28;20016;-78
2022/10/24 05:10:44;;;;;;;20.73;7.03;;;;;;;10.69;75.36;94633.72;5085878;28;20020;-78
2022/10/24 05:13:10;;;;;;;14.23;6.43;;;;;;;10.74;74.93;94637.06;5086226;28;20055;-78
2022/10/24 05:15:35;;;;;;;13.93;6.65;;;;;;;10.75;75.12;94638.66;5085760;28;20323;-78
2022/10/24 05:18:01;;;;;;;28.60;9.35;;;;;;;10.75;75.15;94651.97;5085074;28;20024;-78
2022/10/24 05:20:26;;;;;;;18.50;7.43;;;;;;;10.79;75.30;94636.97;5085559;28;20023;-78
2022/10/24 05:22:52;;;;;;;14.23;6.32;;;;;;;10.82;74.92;94641.69;5085551;28;20050;-78
2022/10/24 05:25:18;;;;;;;32.28;13.10;;;;;;;10.85;75.01;94643.00;5085408;28;20028;-78
2022/10/24 05:27:44;;;;;;;19.67;8.02;;;;;;;10.91;75.17;94649.84;5085608;28;20036;-78
2022/10/24 05:30:10;;;;;;;25.30;7.47;;;;;;;10.93;75.11;94645.00;5085981;28;20032;-78
2022/10/24 05:32:35;;;;;;;10.70;6.70;;;;;;;10.93;75.06;94639.66;5085474;28;20108;-79
2022/10/24 05:35:01;;;;;;;14.68;7.50;;;;;;;10.99;75.08;94638.47;5084892;28;20052;-78
2022/10/24 05:37:26;;;;;;;18.65;5.88;;;;;;;11.08;74.67;94643.13;5083624;28;20020;-78
2022/10/24 05:39:52;;;;;;;22.30;9.70;;;;;;;11.15;74.65;94640.84;5083901;28;20020;-78
2022/10/24 05:42:17;;;;;;;30.00;8.88;;;;;;;11.19;74.66;94644.47;5066892;28;20321;-77
2022/10/24 05:44:43;;;;;;;26.38;7.72;;;;;;;11.23;74.67;94650.81;5084422;28;20032;-77
2022/10/24 05:47:08;;;;;;;31.73;8.85;;;;;;;11.28;74.60;94644.59;5085586;28;20028;-78
2022/10/24 05:49:34;;;;;;;32.45;9.77;;;;;;;11.36;74.08;94662.59;5085147;28;20024;-78
2022/10/24 05:52:00;;;;;;;33.72;9.77;;;;;;;11.37;73.79;94656.16;5085075;28;20066;-78
2022/10/24 05:54:25;;;;;;;25.27;8.50;;;;;;;11.35;73.73;94661.00;5085060;28;20222;-78
2022/10/24 05:56:50;;;;;;;24.33;9.20;;;;;;;11.38;74.09;94666.53;5084938;28;20024;-78
2022/10/24 05:59:16;;;;;;;22.05;8.85;;;;;;;11.39;74.17;94668.09;5084928;28;20036;-77
2022/10/24 06:01:41;;;;;;;23.92;8.70;;;;;;;11.42;74.24;94662.19;5084368;28;20096;-78
2022/10/24 06:04:07;;;;;;;31.25;8.20;;;;;;;11.51;73.66;94675.59;5084856;28;20029;-78
2022/10/24 06:06:38;;;;;;;31.45;9.38;;;;;;;11.45;73.85;94677.59;5084865;28;20098;-77
2022/10/24 06:09:03;;;;;;;33.17;9.20;;;;;;;11.38;74.37;94685.22;5084292;28;20103;-78
2022/10/24 06:11:28;;;;;;;29.58;8.20;;;;;;;11.45;74.34;94684.81;5084691;28;20035;-77
2022/10/24 06:13:54;;;;;;;30.40;9.07;;;;;;;11.55;73.99;94686.47;5084766;28;20054;-77
2022/10/24 06:16:19;;;;;;;38.53;10.25;;;;;;;11.56;74.18;94682.72;5084728;28;20049;-77
2022/10/24 06:18:45;;;;;;;31.73;9.52;;;;;;;11.54;74.55;94675.03;5084360;28;20030;-77
2022/10/24 06:21:12;;;;;;;36.33;10.15;;;;;;;11.60;73.75;94684.50;5066468;28;20029;-77
2022/10/24 06:23:38;;;;;;;38.95;9.35;;;;;;;11.64;73.44;94684.69;5066901;28;20033;-77
2022/10/24 06:26:07;;;;;;;26.30;9.48;;;;;;;11.64;73.37;94676.66;5084428;28;20032;-77
2022/10/24 06:28:32;;;;;;;33.47;9.38;;;;;;;11.70;73.29;94675.47;5084328;28;20103;-77
2022/10/24 06:31:02;;;;;;;32.67;10.15;;;;;;;11.71;73.37;94679.72;5084332;28;20020;-77
2022/10/24 06:33:27;;;;;;;36.65;11.10;;;;;;;11.79;72.83;94678.25;5083951;28;20032;-77
2022/10/24 06:35:53;;;;;;;39.28;11.25;;;;;;;11.84;72.49;94686.94;5083809;28;20052;-77
2022/10/24 06:38:18;;;;;;;30.42;10.30;;;;;;;11.90;72.25;94681.50;5084020;28;20024;-77
2022/10/24 06:40:43;;;;;;;25.42;11.23;;;;;;;11.97;71.97;94687.25;5083972;28;20051;-76
2022/10/24 06:43:09;;;;;;;38.75;10.75;;;;;;;12.02;72.08;94689.78;5084389;28;20035;-77
2022/10/24 06:45:37;;;;;;;30.90;10.35;;;;;;;12.16;71.47;94698.53;5083973;28;20242;-76
2022/10/24 06:48:02;;;;;;;33.22;11.90;;;;;;;12.18;71.75;94692.91;5083963;28;20089;-77
2022/10/24 06:50:28;;;;;;;34.25;11.80;;;;;;;12.26;71.56;94704.75;5083852;28;20058;-77
2022/10/24 06:52:53;;;;;;;37.15;13.52;;;;;;;12.30;71.45;94698.50;5083816;28;20024;-77
2022/10/24 06:55:19;;;;;;;25.85;11.85;;;;;;;12.44;70.76;94714.50;5083591;28;20437;-77
2022/10/24 06:57:44;;;;;;;35.13;11.80;;;;;;;12.44;70.83;94712.59;5083540;28;20024;-78
2022/10/24 07:00:13;;;;;;;31.40;12.05;;;;;;;12.48;70.59;94717.34;5084497;28;20271;-88
2022/10/24 07:02:39;;;;;;;38.38;12.43;;;;;;;12.53;70.53;94712.66;5083612;28;20020;-86
2022/10/24 07:05:08;;;;;;;33.47;12.68;;;;;;;12.60;70.63;94709.56;5083527;28;20024;-86
2022/10/24 07:07:33;;;;;;;47.05;11.82;;;;;;;12.70;70.31;94713.88;5083584;28;20211;-78
2022/10/24 07:09:59;;;;;;;35.30;11.60;;;;;;;12.69;70.17;94702.38;5083297;28;20099;-79
2022/10/24 07:12:24;;;;;;;41.13;12.57;;;;;;;12.82;70.11;94701.53;5083240;28;20024;-80
2022/10/24 07:14:50;;;;;;;29.33;11.60;;;;;;;12.97;70.20;94705.69;5083494;28;20021;-79
2022/10/24 07:17:16;;;;;;;34.88;12.35;;;;;;;13.04;69.70;94697.22;5065417;28;20021;-82
2022/10/24 07:19:46;;;;;;;45.63;11.68;;;;;;;13.18;69.12;94703.28;5082627;28;20361;-82
2022/10/24 07:22:14;;;;;;;38.35;10.95;;;;;;;13.25;68.55;94692.13;5083055;28;20092;-81
2022/10/24 07:24:39;;;;;;;40.53;12.75;;;;;;;13.32;68.46;94695.16;5083182;28;20025;-80
2022/10/24 07:27:05;;;;;;;43.00;13.05;;;;;;;13.43;68.16;94696.47;5082959;28;20302;-81
2022/10/24 07:29:30;;;;;;;42.88;11.60;;;;;;;13.52;68.28;94693.03;5083126;28;20134;-80
2022/10/24 07:31:57;;;;;;;21.52;10.30;;;;;;;13.64;67.49;94694.00;5083113;28;20024;-80
2022/10/24 07:34:23;;;;;;;62.08;12.35;;;;;;;13.76;67.07;94687.25;5082838;28;20016;-79
2022/10/24 07:36:48;;;;;;;28.75;9.65;;;;;;;13.88;67.07;94697.34;5082921;28;20020;-83
2022/10/24 07:39:17;;;;;;;30.85;11.95;;;;;;;13.98;66.50;94691.69;5083155;28;20021;-82
2022/10/24 07:41:42;;;;;;;29.88;9.70;;;;;;;14.07;65.61;94700.56;5065217;28;20029;-82
2022/10/24 07:44:09;;;;;;;40.15;11.20;;;;;;;14.20;64.73;94690.78;5083285;28;20188;-80
2022/10/24 07:46:35;;;;;;;26.63;10.88;;;;;;;14.24;63.85;94702.44;5082831;28;20118;-86
2022/10/24 07:49:01;;;;;;;33.25;10.20;;;;;;;14.34;63.47;94701.34;5082853;28;20020;-87
2022/10/24 07:51:30;;;;;;;36.25;10.82;;;;;;;14.33;63.24;94703.25;5082945;28;20043;-77
2022/10/24 07:53:57;;;;;;;49.53;11.00;;;;;;;14.37;62.97;94698.81;5082713;28;20087;-78
2022/10/24 07:56:22;;;;;;;37.08;10.88;;;;;;;14.27;62.83;94693.78;5082861;28;20017;-78
2022/10/24 07:58:47;;;;;;;23.65;9.65;;;;;;;14.35;62.45;94686.81;5082587;28;20032;-78
2022/10/24 08:01:16;;;;;;;34.22;10.13;;;;;;;14.48;61.81;94693.13;5082819;28;20269;-79
2022/10/24 08:03:42;;;;;;;35.58;9.35;;;;;;;14.58;61.32;94687.47;5083020;28;20082;-78
2022/10/24 08:06:16;;;;;;;34.35;11.38;;;;;;;14.72;60.99;94688.09;5082772;28;20258;-78
2022/10/24 08:08:42;;;;;;;29.90;9.38;;;;;;;14.78;60.48;94688.72;5082755;28;20028;-77
2022/10/24 08:11:11;;;;;;;24.63;9.40;;;;;;;14.93;60.01;94682.03;5082935;28;20021;-77
2022/10/24 08:13:37;;;;;;;31.05;8.50;;;;;;;15.12;58.68;94684.34;5082719;28;20021;-78
2022/10/24 08:16:07;;;;;;;31.50;9.32;;;;;;;15.18;59.08;94677.69;5082828;28;20580;-78
2022/10/24 08:18:33;;;;;;;44.42;8.52;;;;;;;15.24;58.54;94681.78;5082524;28;20029;-77
2022/10/24 08:21:04;;;;;;;26.50;8.60;;;;;;;15.27;58.53;94683.81;5082331;28;20031;-77
2022/10/24 08:23:30;;;;;;;28.13;8.52;;;;;;;15.39;58.51;94680.47;5082627;28;20024;-77
2022/10/24 08:25:56;;;;;;;27.25;8.02;;;;;;;15.52;58.65;94676.75;5082683;28;20024;-77
2022/10/24 08:28:22;;;;;;;35.85;7.20;;;;;;;15.66;57.36;94679.22;5082438;28;20028;-76
2022/10/24 08:30:55;;;;;;;29.63;8.70;;;;;;;15.78;56.40;94678.53;5083198;28;20024;-77
2022/10/24 08:33:21;;;;;;;28.23;9.15;;;;;;;15.87;56.61;94673.88;5086494;28;20251;-78
2022/10/24 08:35:46;;;;;;;21.73;6.75;;;;;;;15.98;56.57;94682.38;5086887;28;20052;-77
2022/10/24 08:38:11;;;;;;;23.20;9.30;;;;;;;16.09;56.66;94680.06;5069110;28;20370;-76
2022/10/24 08:40:38;;;;;;;24.23;8.63;;;;;;;16.20;56.14;94670.50;5086165;28;20084;-77
2022/10/24 08:43:04;;;;;;;26.10;9.00;;;;;;;16.28;56.21;94660.78;5086141;28;20020;-77
2022/10/24 08:45:41;;;;;;;21.00;9.07;;;;;;;16.38;55.92;94671.13;5086109;28;20020;-78
2022/10/24 08:48:13;;;;;;;30.42;10.15;;;;;;;16.43;55.23;94665.56;5086149;28;20012;-75
2022/10/24 08:50:44;;;;;;;25.92;10.85;;;;;;;16.53;55.51;94657.09;5086134;28;20016;-78
2022/10/24 08:53:19;;;;;;;33.67;11.80;;;;;;;16.65;55.31;94657.13;5086072;28;20360;-76
2022/10/24 08:55:53;;;;;;;23.35;10.30;;;;;;;16.76;54.82;94656.72;5085857;28;20144;-78
2022/10/24 08:58:34;;;;;;;21.10;10.52;;;;;;;16.90;54.86;94651.06;5085862;28;20020;-75
2022/10/24 09:01:03;;;;;;;67.85;28.73;;;;;;;16.96;54.22;94645.13;5085894;28;20029;-76
2022/10/24 09:03:38;;;;;;;35.45;16.33;;;;;;;17.08;54.43;94641.66;5085902;28;20021;-77
2022/10/24 09:06:15;;;;;;;27.45;12.57;;;;;;;17.18;53.98;94641.22;5085589;28;20130;-78
2022/10/24 09:08:59;;;;;;;39.80;9.38;;;;;;;17.28;53.76;94642.69;5085847;28;20218;-76
2022/10/24 09:11:55;;;;;;;21.63;9.82;;;;;;;17.31;53.20;94638.53;5085523;28;20016;-77
2022/10/24 09:14:23;;;;;;;20.60;8.90;;;;;;;17.38;53.67;94644.94;5085661;28;20291;-76
2022/10/24 09:17:20;;;;;;;19.08;9.02;;;;;;;17.52;53.20;94635.72;5085417;28;20276;-75
2022/10/24 09:20:21;;;;;;;21.15;8.32;;;;;;;17.63;53.09;94634.94;5069171;28;20070;-77
2022/10/24 09:22:47;;;;;;;26.48;9.65;;;;;;;17.71;53.11;94646.72;5081433;28;20040;-77
2022/10/24 09:25:31;;;;;;;30.50;10.20;;;;;;;17.74;52.84;94637.94;5085203;28;20035;-75
2022/10/24 09:28:00;;;;;;;26.23;10.48;;;;;;;17.77;52.42;94634.56;5085220;28;20329;-76
2022/10/24 09:30:27;;;;;;;35.95;10.02;;;;;;;17.82;52.08;94634.34;5085188;28;20032;-77
2022/10/24 09:32:56;;;;;;;26.35;11.68;;;;;;;17.89;51.64;94633.81;5083465;28;20025;-75
2022/10/24 09:35:27;;;;;;;19.40;9.85;;;;;;;17.99;52.35;94629.81;5083039;28;20047;-79
2022/10/24 09:37:55;;;;;;;28.27;8.90;;;;;;;18.11;51.88;94627.09;5084577;28;20167;-78
2022/10/24 09:40:32;;;;;;;23.42;9.82;;;;;;;18.20;51.68;94625.06;5085197;28;20040;-75
2022/10/24 09:43:49;;;;;;;23.25;9.88;;;;;;;18.34;51.42;94623.88;5084339;28;20023;-76
2022/10/24 09:46:25;;;;;;;33.70;10.35;;;;;;;18.36;50.96;94621.63;5083419;28;20039;-73
2022/10/24 09:48:54;;;;;;;27.80;10.68;;;;;;;18.16;50.25;94626.09;5084538;28;20059;-73
2022/10/24 09:51:33;;;;;;;32.85;10.73;;;;;;;18.31;50.60;94619.94;5084850;28;20023;-73
2022/10/24 09:54:01;;;;;;;29.48;11.45;;;;;;;18.46;50.41;94618.44;5084880;28;20020;-73
2022/10/24 09:56:39;;;;;;;26.88;10.50;;;;;;;18.59;50.58;94614.53;5084639;28;20090;-74
2022/10/24 09:59:26;;;;;;;22.58;9.93;;;;;;;18.73;49.57;94619.53;5083827;28;20052;-73
2022/10/24 10:01:52;;;;;;;30.98;9.70;;;;;;;18.79;48.48;94618.19;5084716;28;20087;-73
2022/10/24 10:04:18;;;;;;;25.38;8.45;;;;;;;18.86;49.03;94614.88;5084548;28;20020;-73
2022/10/24 10:06:49;;;;;;;23.38;9.80;;;;;;;18.95;49.39;94615.50;5084639;28;20035;-73
2022/10/24 10:09:22;;;;;;;27.95;8.23;;;;;;;19.08;48.78;94604.63;5084614;28;20050;-73
2022/10/24 10:11:55;;;;;;;25.60;8.18;;;;;;;19.17;48.49;94610.63;5084536;28;20019;-73
2022/10/24 10:14:23;;;;;;;24.17;7.22;;;;;;;19.30;48.78;94604.00;5084509;28;20020;-73
2022/10/24 10:17:05;;;;;;;22.95;6.80;;;;;;;19.40;48.11;94602.69;5084308;28;20216;-73
2022/10/24 10:19:35;;;;;;;25.25;8.20;;;;;;;19.49;47.56;94603.25;5084409;28;20016;-73
2022/10/24 10:22:19;;;;;;;25.80;7.00;;;;;;;19.59;47.64;94596.53;5084030;28;20095;-73
2022/10/24 10:24:45;;;;;;;23.58;6.93;;;;;;;19.70;47.29;94608.41;5084508;28;20052;-73
2022/10/24 10:27:23;;;;;;;26.70;7.32;;;;;;;19.82;47.12;94597.47;5084304;28;20341;-73
2022/10/24 10:29:48;;;;;;;29.17;9.07;;;;;;;19.92;45.98;94587.22;5084292;28;20029;-73
2022/10/24 10:32:27;;;;;;;24.88;6.22;;;;;;;19.80;45.84;94588.94;5083989;28;20369;-73
2022/10/24 10:35:06;;;;;;;23.00;8.25;;;;;;;19.78;45.70;94596.63;5083691;28;20040;-73
2022/10/24 10:37:40;;;;;;;14.82;6.00;;;;;;;19.87;45.87;94587.53;5083915;28;20203;-72
2022/10/24 10:40:23;;;;;;;21.80;6.80;;;;;;;20.01;45.98;94582.41;5083754;28;20074;-72
2022/10/24 10:43:23;;;;;;;19.40;6.38;;;;;;;20.15;45.81;94580.00;5084023;28;20051;-72
2022/10/24 10:46:19;;;;;;;22.83;6.32;;;;;;;20.28;45.31;94585.25;5083815;28;20039;-72
2022/10/24 10:49:26;;;;;;;18.25;5.80;;;;;;;20.31;44.29;94574.47;5083759;28;20029;-73
2022/10/24 10:52:06;;;;;;;24.65;5.35;;;;;;;20.36;45.37;94571.50;5083869;28;20024;-73
2022/10/24 10:54:43;;;;;;;15.55;4.53;;;;;;;20.52;45.68;94570.63;5083745;28;20604;-74
2022/10/24 10:57:16;;;;;;;14.55;5.47;;;;;;;20.64;44.96;94559.66;5083828;28;20044;-78
2022/10/24 11:00:01;;;;;;;14.82;4.78;;;;;;;20.75;43.93;94559.84;5083619;28;20264;-80
2022/10/24 11:03:21;;;;;;;21.63;5.20;;;;;;;20.87;44.46;94564.31;5083528;28;20108;-77
2022/10/24 11:06:05;;;;;;;18.67;4.35;;;;;;;20.97;43.41;94553.63;5002437;28;20029;-78
2022/10/24 11:09:06;;;;;;;19.45;4.72;;;;;;;21.08;43.29;94544.91;5076624;28;20036;-77
2022/10/24 11:11:37;;;;;;;20.60;4.53;;;;;;;21.17;43.46;94548.16;5079571;28;20282;-76
2022/10/24 11:14:30;;;;;;;20.45;4.38;;;;;;;21.26;42.67;94543.25;5083211;28;20040;-75
2022/10/24 11:17:12;;;;;;;23.38;5.10;;;;;;;21.33;42.94;94546.06;5083123;28;20031;-81
2022/10/24 11:19:49;;;;;;;14.57;4.57;;;;;;;21.44;42.52;94540.84;5083482;28;20028;-77
2022/10/24 11:22:22;;;;;;;24.17;5.32;;;;;;;21.53;42.24;94537.84;5082954;28;20282;-77
2022/10/24 11:24:56;;;;;;;14.23;4.75;;;;;;;21.58;41.16;94540.25;5083315;28;20024;-75
2022/10/24 11:27:50;;;;;;;31.48;4.75;;;;;;;21.64;40.80;94531.44;5083070;28;20066;-77
2022/10/24 11:30:18;;;;;;;17.05;4.53;;;;;;;21.59;40.97;94530.94;5052023;28;20097;-77
2022/10/24 11:33:01;;;;;;;23.85;4.55;;;;;;;21.71;41.94;94522.59;5083022;28;20024;-78
2022/10/24 11:35:31;;;;;;;22.08;4.65;;;;;;;21.81;41.53;94521.16;5082984;28;20107;-76
2022/10/24 11:38:14;;;;;;;27.55;5.82;;;;;;;21.93;41.77;94520.94;5082744;28;20055;-76